sensor_id;sensor_type;location;lat;lon;timestamp;temperature;humidity
21592;DHT22;10958;50.892;3.992;2022-12-29T00:08:25;11.50;99.90
21592;DHT22;10958;50.892;3.992;2022-12-29T00:11:20;11.50;99.90
21592;DHT22;10958;50.892;3.992;2022-12-29T00:14:07;11.50;99.90
21592;DHT22;10958;50.892;3.992;2022-12-29T00:24:37;11.70;99.90
21592;DHT22;10958;50.892;3.992;2022-12-29T00:27:29;11.70;99.90
21592;DHT22;10958;50.892;3.992;2022-12-29T00:30:48;11.70;99.90
21592;DHT22;10958;50.892;3.992;2022-12-29T00:33:35;11.70;99.90
21592;DHT22;10958;50.892;3.992;2022-12-29T00:36:52;11.70;99.90
21592;DHT22;10958;50.892;3.992;2022-12-29T00:39:44;11.70;99.90
21592;DHT22;10958;50.892;3.992;2022-12-29T00:42:34;11.70;99.90
21592;DHT22;10958;50.892;3.992;2022-12-29T00:45:35;11.70;99.90
21592;DHT22;10958;50.892;3.992;2022-12-29T00:48:42;11.70;99.90
21592;DHT22;10958;50.892;3.992;2022-12-29T00:55:06;11.70;99.90
21592;DHT22;10958;50.892;3.992;2022-12-29T00:57:58;11.70;99.90
21592;DHT22;10958;50.892;3.992;2022-12-29T01:06:41;11.70;99.90
21592;DHT22;10958;50.892;3.992;2022-12-29T01:12:20;11.70;99.90
21592;DHT22;10958;50.892;3.992;2022-12-29T01:15:10;11.50;99.90
21592;DHT22;10958;50.892;3.992;2022-12-29T01:18:13;11.60;99.90
21592;DHT22;10958;50.892;3.992;2022-12-29T01:21:08;11.50;99.90
21592;DHT22;10958;50.892;3.992;2022-12-29T01:23:40;11.40;99.90
21592;DHT22;10958;50.892;3.992;2022-12-29T01:26:14;11.40;99.90
21592;DHT22;10958;50.892;3.992;2022-12-29T01:28:41;11.50;99.90
21592;DHT22;10958;50.892;3.992;2022-12-29T01:31:18;11.40;99.90
21592;DHT22;10958;50.892;3.992;2022-12-29T01:33:53;11.40;99.90
21592;DHT22;10958;50.892;3.992;2022-12-29T01:49:37;11.40;99.90
21592;DHT22;10958;50.892;3.992;2022-12-29T01:52:30;11.40;99.90
21592;DHT22;10958;50.892;3.992;2022-12-29T01:55:42;11.40;99.90
21592;DHT22;10958;50.892;3.992;2022-12-29T01:58:15;11.40;99.90
21592;DHT22;10958;50.892;3.992;2022-12-29T02:00:43;11.30;99.90
21592;DHT22;10958;50.892;3.992;2022-12-29T02:03:10;11.20;99.90
21592;DHT22;10958;50.892;3.992;2022-12-29T02:08:28;11.10;99.90
21592;DHT22;10958;50.892;3.992;2022-12-29T02:11:18;11.10;99.90
21592;DHT22;10958;50.892;3.992;2022-12-29T02:35:23;10.70;99.90
21592;DHT22;10958;50.892;3.992;2022-12-29T02:43:15;10.80;99.90
21592;DHT22;10958;50.892;3.992;2022-12-29T02:50:22;10.80;99.90
21592;DHT22;10958;50.892;3.992;2022-12-29T02:53:15;10.80;99.90
21592;DHT22;10958;50.892;3.992;2022-12-29T02:56:04;10.80;99.90
21592;DHT22;10958;50.892;3.992;2022-12-29T03:11:12;10.70;99.90
21592;DHT22;10958;50.892;3.992;2022-12-29T03:17:57;10.60;99.90
21592;DHT22;10958;50.892;3.992;2022-12-29T03:20:52;10.50;99.90
21592;DHT22;10958;50.892;3.992;2022-12-29T03:23:23;10.50;99.90
21592;DHT22;10958;50.892;3.992;2022-12-29T03:25:55;10.50;99.90
21592;DHT22;10958;50.892;3.992;2022-12-29T03:28:48;10.50;99.90
21592;DHT22;10958;50.892;3.992;2022-12-29T03:31:32;10.50;99.90
21592;DHT22;10958;50.892;3.992;2022-12-29T03:34:32;10.50;99.90
21592;DHT22;10958;50.892;3.992;2022-12-29T03:39:51;10.40;99.90
21592;DHT22;10958;50.892;3.992;2022-12-29T03:42:19;10.40;99.90
21592;DHT22;10958;50.892;3.992;2022-12-29T03:44:48;10.40;99.90
21592;DHT22;10958;50.892;3.992;2022-12-29T03:47:58;10.40;99.90
21592;DHT22;10958;50.892;3.992;2022-12-29T03:50:26;10.50;99.90
21592;DHT22;10958;50.892;3.992;2022-12-29T03:53:57;10.40;99.90
21592;DHT22;10958;50.892;3.992;2022-12-29T03:59:15;10.40;99.90
21592;DHT22;10958;50.892;3.992;2022-12-29T04:01:50;10.30;99.90
21592;DHT22;10958;50.892;3.992;2022-12-29T04:04:38;10.40;99.90
21592;DHT22;10958;50.892;3.992;2022-12-29T04:07:55;10.40;99.90
21592;DHT22;10958;50.892;3.992;2022-12-29T04:13:52;10.30;99.90
21592;DHT22;10958;50.892;3.992;2022-12-29T04:16:30;10.20;99.90
21592;DHT22;10958;50.892;3.992;2022-12-29T04:22:29;10.30;99.90
21592;DHT22;10958;50.892;3.992;2022-12-29T04:25:13;10.40;99.90
21592;DHT22;10958;50.892;3.992;2022-12-29T04:27:58;10.50;99.90
21592;DHT22;10958;50.892;3.992;2022-12-29T04:33:25;10.40;99.90
21592;DHT22;10958;50.892;3.992;2022-12-29T04:36:24;10.50;99.90
21592;DHT22;10958;50.892;3.992;2022-12-29T04:39:12;10.50;99.90
21592;DHT22;10958;50.892;3.992;2022-12-29T04:41:52;10.40;99.90
21592;DHT22;10958;50.892;3.992;2022-12-29T04:44:27;10.40;99.90
21592;DHT22;10958;50.892;3.992;2022-12-29T04:46:53;10.40;99.90
21592;DHT22;10958;50.892;3.992;2022-12-29T04:49:30;10.50;99.90
21592;DHT22;10958;50.892;3.992;2022-12-29T04:51:56;10.40;99.90
21592;DHT22;10958;50.892;3.992;2022-12-29T04:54:36;10.40;99.90
21592;DHT22;10958;50.892;3.992;2022-12-29T04:57:07;10.40;99.90
21592;DHT22;10958;50.892;3.992;2022-12-29T04:59:39;10.50;99.90
21592;DHT22;10958;50.892;3.992;2022-12-29T05:02:05;10.50;99.90
21592;DHT22;10958;50.892;3.992;2022-12-29T05:04:42;10.50;99.90
21592;DHT22;10958;50.892;3.992;2022-12-29T05:07:23;10.50;99.90
21592;DHT22;10958;50.892;3.992;2022-12-29T05:09:56;10.50;99.90
21592;DHT22;10958;50.892;3.992;2022-12-29T05:12:33;10.50;99.90
21592;DHT22;10958;50.892;3.992;2022-12-29T05:15:10;10.40;99.90
21592;DHT22;10958;50.892;3.992;2022-12-29T05:18:15;10.40;99.90
21592;DHT22;10958;50.892;3.992;2022-12-29T05:26:42;10.50;99.90
21592;DHT22;10958;50.892;3.992;2022-12-29T05:29:17;10.50;99.90
21592;DHT22;10958;50.892;3.992;2022-12-29T05:32:00;10.50;99.90
21592;DHT22;10958;50.892;3.992;2022-12-29T05:34:29;10.50;99.90
21592;DHT22;10958;50.892;3.992;2022-12-29T05:36:56;10.50;99.90
21592;DHT22;10958;50.892;3.992;2022-12-29T05:39:22;10.50;99.90
21592;DHT22;10958;50.892;3.992;2022-12-29T05:41:48;10.50;99.90
21592;DHT22;10958;50.892;3.992;2022-12-29T05:44:36;10.50;99.90
21592;DHT22;10958;50.892;3.992;2022-12-29T05:47:19;10.50;99.90
21592;DHT22;10958;50.892;3.992;2022-12-29T05:49:47;10.50;99.90
21592;DHT22;10958;50.892;3.992;2022-12-29T05:52:16;10.40;99.90
21592;DHT22;10958;50.892;3.992;2022-12-29T05:54:48;10.40;99.90
21592;DHT22;10958;50.892;3.992;2022-12-29T05:57:46;10.40;99.90
21592;DHT22;10958;50.892;3.992;2022-12-29T06:00:24;10.40;99.90
21592;DHT22;10958;50.892;3.992;2022-12-29T06:03:22;10.30;99.90
21592;DHT22;10958;50.892;3.992;2022-12-29T06:05:55;10.30;99.90
21592;DHT22;10958;50.892;3.992;2022-12-29T06:08:31;10.30;99.90
21592;DHT22;10958;50.892;3.992;2022-12-29T06:11:29;10.40;99.90
21592;DHT22;10958;50.892;3.992;2022-12-29T06:13:58;10.40;99.90
21592;DHT22;10958;50.892;3.992;2022-12-29T06:16:24;10.40;99.90
21592;DHT22;10958;50.892;3.992;2022-12-29T06:19:26;10.50;99.90
21592;DHT22;10958;50.892;3.992;2022-12-29T06:22:08;10.50;99.90
21592;DHT22;10958;50.892;3.992;2022-12-29T06:25:00;10.50;99.90
21592;DHT22;10958;50.892;3.992;2022-12-29T06:27:32;10.50;99.90
21592;DHT22;10958;50.892;3.992;2022-12-29T06:30:04;10.40;99.90
21592;DHT22;10958;50.892;3.992;2022-12-29T06:32:47;10.40;99.90
21592;DHT22;10958;50.892;3.992;2022-12-29T06:42:10;10.50;99.90
21592;DHT22;10958;50.892;3.992;2022-12-29T06:47:52;10.50;99.90
21592;DHT22;10958;50.892;3.992;2022-12-29T06:57:43;10.50;99.90
21592;DHT22;10958;50.892;3.992;2022-12-29T07:00:09;10.40;99.90
21592;DHT22;10958;50.892;3.992;2022-12-29T07:02:53;10.40;99.90
21592;DHT22;10958;50.892;3.992;2022-12-29T07:08:26;10.50;99.90
21592;DHT22;10958;50.892;3.992;2022-12-29T07:11:14;10.60;99.90
21592;DHT22;10958;50.892;3.992;2022-12-29T07:13:54;10.60;99.90
21592;DHT22;10958;50.892;3.992;2022-12-29T07:16:31;10.60;99.90
21592;DHT22;10958;50.892;3.992;2022-12-29T07:22:43;10.70;99.90
21592;DHT22;10958;50.892;3.992;2022-12-29T07:25:21;10.70;99.90
21592;DHT22;10958;50.892;3.992;2022-12-29T07:27:50;10.80;99.90
21592;DHT22;10958;50.892;3.992;2022-12-29T07:30:16;10.80;99.90
21592;DHT22;10958;50.892;3.992;2022-12-29T07:32:50;10.70;99.90
21592;DHT22;10958;50.892;3.992;2022-12-29T07:35:16;10.80;99.90
21592;DHT22;10958;50.892;3.992;2022-12-29T07:37:56;10.80;99.90
21592;DHT22;10958;50.892;3.992;2022-12-29T07:40:31;10.70;99.90
21592;DHT22;10958;50.892;3.992;2022-12-29T07:43:13;10.80;99.90
21592;DHT22;10958;50.892;3.992;2022-12-29T07:45:44;10.70;99.90
21592;DHT22;10958;50.892;3.992;2022-12-29T07:48:28;10.80;99.90
21592;DHT22;10958;50.892;3.992;2022-12-29T07:50:54;10.80;99.90
21592;DHT22;10958;50.892;3.992;2022-12-29T07:53:26;10.80;99.90
21592;DHT22;10958;50.892;3.992;2022-12-29T07:55:53;10.80;99.90
21592;DHT22;10958;50.892;3.992;2022-12-29T07:58:19;10.80;99.90
21592;DHT22;10958;50.892;3.992;2022-12-29T08:00:56;10.80;99.90
21592;DHT22;10958;50.892;3.992;2022-12-29T08:03:22;10.90;99.90
21592;DHT22;10958;50.892;3.992;2022-12-29T08:06:02;10.80;99.90
21592;DHT22;10958;50.892;3.992;2022-12-29T08:08:44;10.80;99.90
21592;DHT22;10958;50.892;3.992;2022-12-29T08:11:24;10.90;99.90
21592;DHT22;10958;50.892;3.992;2022-12-29T08:14:11;10.80;99.90
21592;DHT22;10958;50.892;3.992;2022-12-29T08:16:45;10.70;99.90
21592;DHT22;10958;50.892;3.992;2022-12-29T08:19:11;10.80;99.90
21592;DHT22;10958;50.892;3.992;2022-12-29T08:21:49;10.80;99.90
21592;DHT22;10958;50.892;3.992;2022-12-29T08:24:35;10.80;99.90
21592;DHT22;10958;50.892;3.992;2022-12-29T08:27:17;10.80;99.90
21592;DHT22;10958;50.892;3.992;2022-12-29T08:30:04;10.70;99.90
21592;DHT22;10958;50.892;3.992;2022-12-29T08:32:44;10.70;99.90
21592;DHT22;10958;50.892;3.992;2022-12-29T08:35:10;10.70;99.90
21592;DHT22;10958;50.892;3.992;2022-12-29T08:37:52;10.60;99.90
21592;DHT22;10958;50.892;3.992;2022-12-29T08:40:24;10.70;99.90
21592;DHT22;10958;50.892;3.992;2022-12-29T08:43:10;10.60;99.90
21592;DHT22;10958;50.892;3.992;2022-12-29T08:45:46;10.60;99.90
21592;DHT22;10958;50.892;3.992;2022-12-29T08:48:29;10.60;99.90
21592;DHT22;10958;50.892;3.992;2022-12-29T08:51:15;10.60;99.90
21592;DHT22;10958;50.892;3.992;2022-12-29T08:53:42;10.50;99.90
21592;DHT22;10958;50.892;3.992;2022-12-29T08:59:03;10.40;99.90
21592;DHT22;10958;50.892;3.992;2022-12-29T09:01:29;10.30;99.90
21592;DHT22;10958;50.892;3.992;2022-12-29T09:03:56;10.10;99.90
21592;DHT22;10958;50.892;3.992;2022-12-29T09:06:31;10.10;99.90
21592;DHT22;10958;50.892;3.992;2022-12-29T09:09:20;10.10;99.90
21592;DHT22;10958;50.892;3.992;2022-12-29T09:12:17;10.10;99.90
21592;DHT22;10958;50.892;3.992;2022-12-29T09:14:46;10.10;99.90
21592;DHT22;10958;50.892;3.992;2022-12-29T09:17:11;10.20;99.90
21592;DHT22;10958;50.892;3.992;2022-12-29T09:19:56;10.10;99.90
21592;DHT22;10958;50.892;3.992;2022-12-29T09:22:25;10.10;99.90
21592;DHT22;10958;50.892;3.992;2022-12-29T09:25:08;10.10;99.90
21592;DHT22;10958;50.892;3.992;2022-12-29T09:28:01;10.10;99.90
21592;DHT22;10958;50.892;3.992;2022-12-29T09:31:11;10.00;99.90
21592;DHT22;10958;50.892;3.992;2022-12-29T09:33:55;9.90;99.90
21592;DHT22;10958;50.892;3.992;2022-12-29T09:37:00;9.90;99.90
21592;DHT22;10958;50.892;3.992;2022-12-29T09:46:48;10.20;99.90
21592;DHT22;10958;50.892;3.992;2022-12-29T09:52:30;10.30;99.90
21592;DHT22;10958;50.892;3.992;2022-12-29T09:55:14;10.30;99.90
21592;DHT22;10958;50.892;3.992;2022-12-29T09:58:02;10.30;99.90
21592;DHT22;10958;50.892;3.992;2022-12-29T10:03:29;10.30;99.90
21592;DHT22;10958;50.892;3.992;2022-12-29T10:06:11;10.30;99.90
21592;DHT22;10958;50.892;3.992;2022-12-29T10:22:45;10.60;99.90
21592;DHT22;10958;50.892;3.992;2022-12-29T10:25:19;10.80;99.90
21592;DHT22;10958;50.892;3.992;2022-12-29T10:27:49;10.80;99.90
21592;DHT22;10958;50.892;3.992;2022-12-29T10:30:16;10.90;99.90
21592;DHT22;10958;50.892;3.992;2022-12-29T10:36:04;10.90;99.90
21592;DHT22;10958;50.892;3.992;2022-12-29T10:42:29;11.10;99.90
21592;DHT22;10958;50.892;3.992;2022-12-29T10:45:31;11.10;99.90
21592;DHT22;10958;50.892;3.992;2022-12-29T10:52:09;11.10;99.90
21592;DHT22;10958;50.892;3.992;2022-12-29T10:57:25;11.20;99.90
21592;DHT22;10958;50.892;3.992;2022-12-29T11:07:26;11.00;99.90
21592;DHT22;10958;50.892;3.992;2022-12-29T11:10:21;11.10;99.90
21592;DHT22;10958;50.892;3.992;2022-12-29T11:13:46;11.10;99.90
21592;DHT22;10958;50.892;3.992;2022-12-29T11:16:47;11.10;99.90
21592;DHT22;10958;50.892;3.992;2022-12-29T11:19:36;11.10;99.90
21592;DHT22;10958;50.892;3.992;2022-12-29T11:22:25;11.10;99.90
21592;DHT22;10958;50.892;3.992;2022-12-29T11:28:15;11.10;99.90
21592;DHT22;10958;50.892;3.992;2022-12-29T11:31:18;11.10;99.90
21592;DHT22;10958;50.892;3.992;2022-12-29T11:33:55;11.10;99.90
21592;DHT22;10958;50.892;3.992;2022-12-29T11:36:24;11.10;99.90
21592;DHT22;10958;50.892;3.992;2022-12-29T11:39:26;11.10;99.90
21592;DHT22;10958;50.892;3.992;2022-12-29T11:42:02;11.10;99.90
21592;DHT22;10958;50.892;3.992;2022-12-29T11:47:58;11.20;99.90
21592;DHT22;10958;50.892;3.992;2022-12-29T11:50:49;11.30;99.90
21592;DHT22;10958;50.892;3.992;2022-12-29T11:53:51;11.30;99.90
21592;DHT22;10958;50.892;3.992;2022-12-29T11:56:20;11.10;99.90
21592;DHT22;10958;50.892;3.992;2022-12-29T11:58:50;11.00;99.90
21592;DHT22;10958;50.892;3.992;2022-12-29T12:04:18;11.00;99.90
21592;DHT22;10958;50.892;3.992;2022-12-29T12:07:43;11.00;99.90
21592;DHT22;10958;50.892;3.992;2022-12-29T12:09:58;10.90;99.90
21592;DHT22;10958;50.892;3.992;2022-12-29T12:12:47;10.90;99.90
21592;DHT22;10958;50.892;3.992;2022-12-29T12:15:40;10.90;99.90
21592;DHT22;10958;50.892;3.992;2022-12-29T12:18:38;10.90;99.90
21592;DHT22;10958;50.892;3.992;2022-12-29T12:21:24;10.90;99.90
21592;DHT22;10958;50.892;3.992;2022-12-29T12:26:37;10.90;99.90
21592;DHT22;10958;50.892;3.992;2022-12-29T12:29:16;10.90;99.90
21592;DHT22;10958;50.892;3.992;2022-12-29T12:34:33;10.80;99.90
21592;DHT22;10958;50.892;3.992;2022-12-29T12:42:39;10.70;99.90
21592;DHT22;10958;50.892;3.992;2022-12-29T12:48:26;10.70;99.90
21592;DHT22;10958;50.892;3.992;2022-12-29T12:51:37;10.70;99.90
21592;DHT22;10958;50.892;3.992;2022-12-29T12:59:52;10.60;99.90
21592;DHT22;10958;50.892;3.992;2022-12-29T13:14:38;11.00;99.90
21592;DHT22;10958;50.892;3.992;2022-12-29T13:17:56;11.00;99.90
21592;DHT22;10958;50.892;3.992;2022-12-29T13:20:39;11.00;99.90
21592;DHT22;10958;50.892;3.992;2022-12-29T13:28:55;10.90;99.90
21592;DHT22;10958;50.892;3.992;2022-12-29T13:36:22;10.90;99.90
21592;DHT22;10958;50.892;3.992;2022-12-29T13:38:54;10.90;99.90
21592;DHT22;10958;50.892;3.992;2022-12-29T13:41:38;10.70;99.90
21592;DHT22;10958;50.892;3.992;2022-12-29T13:44:06;10.80;99.90
21592;DHT22;10958;50.892;3.992;2022-12-29T13:46:40;10.70;99.90
21592;DHT22;10958;50.892;3.992;2022-12-29T13:49:15;10.70;99.90
21592;DHT22;10958;50.892;3.992;2022-12-29T13:52:04;10.70;99.90
21592;DHT22;10958;50.892;3.992;2022-12-29T13:57:51;9.80;99.90
21592;DHT22;10958;50.892;3.992;2022-12-29T14:00:21;9.50;99.90
21592;DHT22;10958;50.892;3.992;2022-12-29T14:05:32;9.20;99.90
21592;DHT22;10958;50.892;3.992;2022-12-29T14:08:04;9.20;99.90
21592;DHT22;10958;50.892;3.992;2022-12-29T14:10:36;9.10;99.90
21592;DHT22;10958;50.892;3.992;2022-12-29T14:13:16;9.10;99.90
21592;DHT22;10958;50.892;3.992;2022-12-29T14:15:45;9.10;99.90
21592;DHT22;10958;50.892;3.992;2022-12-29T14:18:23;9.00;99.90
21592;DHT22;10958;50.892;3.992;2022-12-29T14:20:58;8.90;99.90
21592;DHT22;10958;50.892;3.992;2022-12-29T14:26:14;8.80;99.90
21592;DHT22;10958;50.892;3.992;2022-12-29T14:28:43;8.80;99.90
21592;DHT22;10958;50.892;3.992;2022-12-29T14:36:38;9.10;99.90
21592;DHT22;10958;50.892;3.992;2022-12-29T14:45:03;9.00;99.90
21592;DHT22;10958;50.892;3.992;2022-12-29T14:47:34;9.00;99.90
21592;DHT22;10958;50.892;3.992;2022-12-29T14:50:33;9.10;99.90
21592;DHT22;10958;50.892;3.992;2022-12-29T14:52:55;9.10;99.90
21592;DHT22;10958;50.892;3.992;2022-12-29T14:55:54;9.10;99.90
21592;DHT22;10958;50.892;3.992;2022-12-29T15:00:48;9.00;99.90
21592;DHT22;10958;50.892;3.992;2022-12-29T15:03:28;9.00;99.90
21592;DHT22;10958;50.892;3.992;2022-12-29T15:05:56;9.00;99.90
21592;DHT22;10958;50.892;3.992;2022-12-29T15:08:26;9.00;99.90
21592;DHT22;10958;50.892;3.992;2022-12-29T15:11:09;8.90;99.90
21592;DHT22;10958;50.892;3.992;2022-12-29T15:13:39;8.90;99.90
21592;DHT22;10958;50.892;3.992;2022-12-29T15:16:26;8.80;99.90
21592;DHT22;10958;50.892;3.992;2022-12-29T15:18:54;8.90;99.90
21592;DHT22;10958;50.892;3.992;2022-12-29T15:21:32;8.90;99.90
21592;DHT22;10958;50.892;3.992;2022-12-29T15:23:59;8.90;99.90
21592;DHT22;10958;50.892;3.992;2022-12-29T15:26:49;9.00;99.90
21592;DHT22;10958;50.892;3.992;2022-12-29T15:29:32;9.10;99.90
21592;DHT22;10958;50.892;3.992;2022-12-29T15:32:10;9.10;99.90
21592;DHT22;10958;50.892;3.992;2022-12-29T15:34:37;9.00;99.90
21592;DHT22;10958;50.892;3.992;2022-12-29T15:37:07;8.90;99.90
21592;DHT22;10958;50.892;3.992;2022-12-29T15:39:33;8.90;99.90
21592;DHT22;10958;50.892;3.992;2022-12-29T15:42:32;8.80;99.90
21592;DHT22;10958;50.892;3.992;2022-12-29T15:45:04;8.80;99.90
21592;DHT22;10958;50.892;3.992;2022-12-29T15:47:30;8.80;99.90
21592;DHT22;10958;50.892;3.992;2022-12-29T15:50:14;8.70;99.90
21592;DHT22;10958;50.892;3.992;2022-12-29T15:52:41;8.70;99.90
21592;DHT22;10958;50.892;3.992;2022-12-29T15:55:36;8.70;99.90
21592;DHT22;10958;50.892;3.992;2022-12-29T15:58:15;8.70;99.90
21592;DHT22;10958;50.892;3.992;2022-12-29T16:00:47;8.70;99.90
21592;DHT22;10958;50.892;3.992;2022-12-29T16:03:15;8.60;99.90
21592;DHT22;10958;50.892;3.992;2022-12-29T16:05:42;8.60;99.90
21592;DHT22;10958;50.892;3.992;2022-12-29T16:08:37;8.70;99.90
21592;DHT22;10958;50.892;3.992;2022-12-29T16:11:22;8.70;99.90
21592;DHT22;10958;50.892;3.992;2022-12-29T16:13:52;8.60;99.90
21592;DHT22;10958;50.892;3.992;2022-12-29T16:18:50;8.70;99.90
21592;DHT22;10958;50.892;3.992;2022-12-29T16:22:00;8.70;99.90
21592;DHT22;10958;50.892;3.992;2022-12-29T16:24:37;8.80;99.90
21592;DHT22;10958;50.892;3.992;2022-12-29T16:39:27;8.50;99.90
21592;DHT22;10958;50.892;3.992;2022-12-29T16:48:27;8.50;99.90
21592;DHT22;10958;50.892;3.992;2022-12-29T16:55:14;8.30;99.90
21592;DHT22;10958;50.892;3.992;2022-12-29T17:01:42;8.50;99.90
21592;DHT22;10958;50.892;3.992;2022-12-29T17:07:27;8.50;99.90
21592;DHT22;10958;50.892;3.992;2022-12-29T17:10:00;8.40;99.90
21592;DHT22;10958;50.892;3.992;2022-12-29T17:12:28;8.40;99.90
21592;DHT22;10958;50.892;3.992;2022-12-29T17:21:27;8.20;99.90
21592;DHT22;10958;50.892;3.992;2022-12-29T17:27:28;8.20;99.90
21592;DHT22;10958;50.892;3.992;2022-12-29T17:30:25;8.20;99.90
21592;DHT22;10958;50.892;3.992;2022-12-29T17:33:03;8.20;99.90
21592;DHT22;10958;50.892;3.992;2022-12-29T17:35:51;8.20;99.90
21592;DHT22;10958;50.892;3.992;2022-12-29T17:38:47;8.20;99.90
21592;DHT22;10958;50.892;3.992;2022-12-29T17:41:26;8.30;99.90
21592;DHT22;10958;50.892;3.992;2022-12-29T17:44:06;8.30;99.90
21592;DHT22;10958;50.892;3.992;2022-12-29T17:46:42;8.30;99.90
21592;DHT22;10958;50.892;3.992;2022-12-29T17:49:18;8.40;99.90
21592;DHT22;10958;50.892;3.992;2022-12-29T17:51:45;8.50;99.90
21592;DHT22;10958;50.892;3.992;2022-12-29T17:54:22;8.50;99.90
21592;DHT22;10958;50.892;3.992;2022-12-29T17:56:51;8.50;99.90
21592;DHT22;10958;50.892;3.992;2022-12-29T17:59:20;8.50;99.90
21592;DHT22;10958;50.892;3.992;2022-12-29T18:05:45;8.30;99.90
21592;DHT22;10958;50.892;3.992;2022-12-29T18:08:11;8.20;99.90
21592;DHT22;10958;50.892;3.992;2022-12-29T18:10:43;8.10;99.90
21592;DHT22;10958;50.892;3.992;2022-12-29T18:13:28;8.10;99.90
21592;DHT22;10958;50.892;3.992;2022-12-29T18:16:18;8.10;99.90
21592;DHT22;10958;50.892;3.992;2022-12-29T18:18:49;8.10;99.90
21592;DHT22;10958;50.892;3.992;2022-12-29T18:21:18;8.10;99.90
21592;DHT22;10958;50.892;3.992;2022-12-29T18:23:51;8.10;99.90
21592;DHT22;10958;50.892;3.992;2022-12-29T18:26:22;8.20;99.90
21592;DHT22;10958;50.892;3.992;2022-12-29T18:28:50;8.20;99.90
21592;DHT22;10958;50.892;3.992;2022-12-29T18:31:45;8.30;99.90
21592;DHT22;10958;50.892;3.992;2022-12-29T18:34:13;8.10;99.90
21592;DHT22;10958;50.892;3.992;2022-12-29T18:36:42;8.10;99.90
21592;DHT22;10958;50.892;3.992;2022-12-29T18:39:10;8.20;99.90
21592;DHT22;10958;50.892;3.992;2022-12-29T18:41:36;8.20;99.90
21592;DHT22;10958;50.892;3.992;2022-12-29T18:44:02;8.20;99.90
21592;DHT22;10958;50.892;3.992;2022-12-29T18:46:30;8.20;99.90
21592;DHT22;10958;50.892;3.992;2022-12-29T18:48:58;8.20;99.90
21592;DHT22;10958;50.892;3.992;2022-12-29T18:51:24;8.20;99.90
21592;DHT22;10958;50.892;3.992;2022-12-29T18:57:17;8.20;99.90
21592;DHT22;10958;50.892;3.992;2022-12-29T18:59:43;8.20;99.90
21592;DHT22;10958;50.892;3.992;2022-12-29T19:02:15;8.10;99.90
21592;DHT22;10958;50.892;3.992;2022-12-29T19:04:43;8.10;99.90
21592;DHT22;10958;50.892;3.992;2022-12-29T19:07:09;8.10;99.90
21592;DHT22;10958;50.892;3.992;2022-12-29T19:09:52;8.10;99.90
21592;DHT22;10958;50.892;3.992;2022-12-29T19:12:28;8.10;99.90
21592;DHT22;10958;50.892;3.992;2022-12-29T19:15:03;8.10;99.90
21592;DHT22;10958;50.892;3.992;2022-12-29T19:17:33;8.00;99.90
21592;DHT22;10958;50.892;3.992;2022-12-29T19:20:09;8.00;99.90
21592;DHT22;10958;50.892;3.992;2022-12-29T19:22:49;8.00;99.90
21592;DHT22;10958;50.892;3.992;2022-12-29T19:25:23;7.90;99.90
21592;DHT22;10958;50.892;3.992;2022-12-29T19:27:49;8.00;99.90
21592;DHT22;10958;50.892;3.992;2022-12-29T19:30:16;8.00;99.90
21592;DHT22;10958;50.892;3.992;2022-12-29T19:32:42;7.90;99.90
21592;DHT22;10958;50.892;3.992;2022-12-29T19:35:13;7.90;99.90
21592;DHT22;10958;50.892;3.992;2022-12-29T19:37:39;8.00;99.90
21592;DHT22;10958;50.892;3.992;2022-12-29T19:40:10;8.10;99.90
21592;DHT22;10958;50.892;3.992;2022-12-29T19:42:37;8.20;99.90
21592;DHT22;10958;50.892;3.992;2022-12-29T19:45:23;8.10;99.90
21592;DHT22;10958;50.892;3.992;2022-12-29T19:48:19;8.10;99.90
21592;DHT22;10958;50.892;3.992;2022-12-29T19:50:46;8.10;99.90
21592;DHT22;10958;50.892;3.992;2022-12-29T19:53:13;8.10;99.90
21592;DHT22;10958;50.892;3.992;2022-12-29T19:56:02;8.10;99.90
21592;DHT22;10958;50.892;3.992;2022-12-29T19:58:35;8.00;99.90
21592;DHT22;10958;50.892;3.992;2022-12-29T20:01:16;7.90;99.90
21592;DHT22;10958;50.892;3.992;2022-12-29T20:03:54;8.00;99.90
21592;DHT22;10958;50.892;3.992;2022-12-29T20:06:30;7.90;99.90
21592;DHT22;10958;50.892;3.992;2022-12-29T20:09:05;7.90;99.90
21592;DHT22;10958;50.892;3.992;2022-12-29T20:11:54;7.80;99.90
21592;DHT22;10958;50.892;3.992;2022-12-29T20:14:28;7.80;99.90
21592;DHT22;10958;50.892;3.992;2022-12-29T20:17:00;7.80;99.90
21592;DHT22;10958;50.892;3.992;2022-12-29T20:19:39;7.80;99.90
21592;DHT22;10958;50.892;3.992;2022-12-29T20:22:28;7.80;99.90
21592;DHT22;10958;50.892;3.992;2022-12-29T20:25:18;7.80;99.90
21592;DHT22;10958;50.892;3.992;2022-12-29T20:27:45;7.80;99.90
21592;DHT22;10958;50.892;3.992;2022-12-29T20:30:11;7.70;99.90
21592;DHT22;10958;50.892;3.992;2022-12-29T20:32:37;7.70;99.90
21592;DHT22;10958;50.892;3.992;2022-12-29T20:35:06;7.80;99.90
21592;DHT22;10958;50.892;3.992;2022-12-29T20:37:34;7.70;99.90
21592;DHT22;10958;50.892;3.992;2022-12-29T20:40:03;7.70;99.90
21592;DHT22;10958;50.892;3.992;2022-12-29T20:42:35;7.70;99.90
21592;DHT22;10958;50.892;3.992;2022-12-29T20:45:01;7.70;99.90
21592;DHT22;10958;50.892;3.992;2022-12-29T20:47:27;7.70;99.90
21592;DHT22;10958;50.892;3.992;2022-12-29T20:49:54;7.70;99.90
21592;DHT22;10958;50.892;3.992;2022-12-29T20:52:26;7.70;99.90
21592;DHT22;10958;50.892;3.992;2022-12-29T20:54:52;7.60;99.90
21592;DHT22;10958;50.892;3.992;2022-12-29T20:57:19;7.70;99.90
21592;DHT22;10958;50.892;3.992;2022-12-29T20:59:50;7.70;99.90
21592;DHT22;10958;50.892;3.992;2022-12-29T21:02:56;7.60;99.90
21592;DHT22;10958;50.892;3.992;2022-12-29T21:06:01;7.60;99.90
21592;DHT22;10958;50.892;3.992;2022-12-29T21:08:27;7.50;99.90
21592;DHT22;10958;50.892;3.992;2022-12-29T21:11:05;7.60;99.90
21592;DHT22;10958;50.892;3.992;2022-12-29T21:13:31;7.60;99.90
21592;DHT22;10958;50.892;3.992;2022-12-29T21:16:04;7.60;99.90
21592;DHT22;10958;50.892;3.992;2022-12-29T21:18:31;7.50;99.90
21592;DHT22;10958;50.892;3.992;2022-12-29T21:21:11;7.50;99.90
21592;DHT22;10958;50.892;3.992;2022-12-29T21:23:39;7.50;99.90
21592;DHT22;10958;50.892;3.992;2022-12-29T21:26:13;7.50;99.90
21592;DHT22;10958;50.892;3.992;2022-12-29T21:28:39;7.50;99.90
21592;DHT22;10958;50.892;3.992;2022-12-29T21:31:29;7.50;99.90
21592;DHT22;10958;50.892;3.992;2022-12-29T21:33:56;7.50;99.90
21592;DHT22;10958;50.892;3.992;2022-12-29T21:36:26;7.40;99.90
21592;DHT22;10958;50.892;3.992;2022-12-29T21:38:53;7.40;99.90
21592;DHT22;10958;50.892;3.992;2022-12-29T21:41:25;7.40;99.90
21592;DHT22;10958;50.892;3.992;2022-12-29T21:43:53;7.40;99.90
21592;DHT22;10958;50.892;3.992;2022-12-29T21:46:43;7.20;99.90
21592;DHT22;10958;50.892;3.992;2022-12-29T21:49:24;7.20;99.90
21592;DHT22;10958;50.892;3.992;2022-12-29T21:51:56;7.30;99.90
21592;DHT22;10958;50.892;3.992;2022-12-29T21:54:38;7.30;99.90
21592;DHT22;10958;50.892;3.992;2022-12-29T21:57:23;7.20;99.90
21592;DHT22;10958;50.892;3.992;2022-12-29T22:02:58;7.30;99.90